• Join FlightAware (Why Join?)
  • Login
  • US Flag 
06:48PM EST


 

Airport Tracker/Info


-or-


 

Live Flight TrackerFlight Track Log ✈ SWA1729 ✈ 21-Apr-2013 ✈ KHOU - KELP

Flight Track Log - Related Links

Times and Time Zones

All times are in EDT time to prevent confusion due to time zone crossing. See the SWA1729 flight status page for this flight to view local times or setup timezone preferences in your user account.

Time Position Orientation Groundspeed Altitude Reporting Facility
EDT Latitude Longitude Course Direction KTS MPH feet Rate Location/Type
10:05PM 29.6856 -95.2747 342° North 250 288 1,700  Level Houston Center
10:06PM 29.7089 -95.3508 289° West 259 298 5,300 3,480 Climbing Houston Center
10:07PM 29.7275 -95.4219 287° West 230 265 8,800 2,700 Climbing Houston Center
10:08PM 29.7503 -95.5069 287° West 271 312 10,800 2,040 Climbing Houston Center
10:09PM 29.7781 -95.6089 287° West 330 380 13,000 2,460 Climbing Houston Center
10:10PM 29.8615 -95.8705 295° West  Level FlightAware Approximate
10:10PM 29.8053 -95.7142 287° West 342 394 15,900  Level Houston Center
10:11PM 29.8328 -95.8186 287° West 341 392 18,300 2,280 Climbing Houston Center
10:12PM 29.8622 -95.9281 287° West 356 410 20,600 2,100 Climbing Houston Center
10:13PM 29.8967 -96.0581 287° West 365 420 22,600 1,560 Climbing Houston Center
10:14PM 29.9292 -96.1775 287° West 388 447 23,800 1,560 Climbing Houston Center
10:15PM 29.9428 -96.3042 277° West 397 457 25,800 2,100 Climbing Houston Center
10:16PM 29.9481 -96.4292 273° West 394 453 28,200 1,920 Climbing Houston Center
10:17PM 29.9547 -96.5497 274° West 382 440 29,800 1,620 Climbing Houston Center
10:18PM 29.9778 -96.6667 283° West 375 432 31,500 1,620 Climbing Houston Center
10:19PM 30.0019 -96.7806 284° West 369 425 33,200 1,620 Climbing Houston Center
10:20PM 30.0239 -96.8897 283° West 355 409 34,800 1,200 Climbing Houston Center
10:21PM 30.0458 -96.9967 283° West 346 398 35,700 540 Climbing Houston Center
10:22PM 30.0742 -97.1269 284° West 351 404 35,900 60 Climbing Houston Center
10:23PM 30.0947 -97.2297 283° West 353 406 35,900  Level Houston Center
10:24PM 30.1172 -97.3411 283° West 353 406 35,900  Level Houston Center
10:25PM 30.1392 -97.4517 283° West 350 403 35,900  Level Houston Center
10:26PM 30.1619 -97.5628 283° West 351 404 36,000  Climbing Houston Center
10:27PM 30.1847 -97.6717 284° West 347 399 35,900  Descending Houston Center
10:28PM 30.2067 -97.7833 283° West 351 404 36,000  Climbing Houston Center
10:29PM 30.2314 -97.9053 283° West 352 405 36,000  Level Houston Center
10:30PM 30.2525 -98.0147 283° West 350 403 36,000  Level Houston Center
10:31PM 30.2747 -98.1272 283° West 357 411 36,000  Level Houston Center
10:32PM 30.2983 -98.2472 283° West 356 410 36,000 -60 Level Houston Center
10:33PM 30.3178 -98.3461 283° West 357 411 35,900 -60 Descending Houston Center
10:34PM 30.3417 -98.4611 284° West 362 417 35,900  Level Houston Center
10:35PM 30.3614 -98.5747 281° West 358 412 36,000  Climbing Houston Center
10:36PM 30.3839 -98.6897 283° West 363 418 35,900 -60 Descending Houston Center
10:37PM 30.4061 -98.8047 283° West 363 418 35,900  Level Houston Center
10:38PM 30.4331 -98.9394 283° West 364 419 35,900  Level Houston Center
10:39PM 30.4556 -99.0536 283° West 361 415 36,000  Climbing Houston Center
10:40PM 30.4775 -99.1706 282° West 356 410 35,900 -60 Descending Houston Center
10:41PM 30.4992 -99.2839 283° West 359 413 35,900  Level Houston Center
10:42PM 30.5211 -99.3947 283° West 356 410 35,900  Level Houston Center
10:43PM 30.5411 -99.5061 282° West 355 409 35,900  Level Houston Center
10:44PM 30.5619 -99.6172 282° West 355 409 35,900  Level Houston Center
10:45PM 30.5825 -99.7289 282° West 355 409 35,900  Level Houston Center
10:46PM 30.6056 -99.8600 282° West 351 404 35,900  Level Houston Center
10:47PM 30.6303 -99.9703 285° West 355 409 35,900  Level Houston Center
10:48PM 30.6525 -100.0817 283° West 356 410 35,900  Level Houston Center
10:49PM 30.6747 -100.1925 283° West 354 407 35,900  Level Houston Center
10:51PM 30.6967 -100.3050 283° West 358 412 35,900  Level Houston Center
10:52PM 30.7200 -100.4175 284° West 358 412 35,900  Level Houston Center
10:53PM 30.7411 -100.5303 282° West 357 411 35,900  Level Houston Center
10:54PM 30.7636 -100.6447 283° West 366 421 35,900  Level Houston Center
10:55PM 30.7856 -100.7564 283° West 358 412 35,900  Level Houston Center
10:56PM 30.8086 -100.8711 283° West 365 420 35,900  Level Houston Center
10:57PM 30.8306 -100.9822 283° West 360 414 35,900  Level Houston Center
10:58PM 30.8553 -101.1197 282° West 362 417 35,900  Level Houston Center
10:59PM 30.8800 -101.2303 285° West 356 410 35,900  Level Houston Center
11:00PM 30.9019 -101.3450 283° West 361 415 35,900  Level Houston Center
11:01PM 30.9225 -101.4608 282° West 365 420 35,900  Level Houston Center
11:02PM 30.9431 -101.5686 283° West 364 419 35,900  Level Houston Center
11:03PM 30.9642 -101.6850 282° West 366 421 35,900  Level Houston Center
11:04PM 30.9864 -101.7986 283° West 363 418 35,900  Level Houston Center
11:05PM 31.0072 -101.9153 282° West 364 419 35,900  Level Houston Center
11:06PM 31.0297 -102.0314 283° West 365 420 35,900  Level Houston Center
11:07PM 31.0500 -102.1467 282° West 364 419 35,900  Level Houston Center
11:08PM 31.0703 -102.2642 281° West 363 418 35,900  Level Houston Center
11:09PM 31.0917 -102.3828 282° West 365 420 35,900  Level Houston Center
11:09PM 31.1008 -102.4233 285° West 365 420 35,900  Level Albuquerque Center
11:10PM 31.1231 -102.5503 282° West 369 425 35,900  Level Albuquerque Center
11:11PM 31.1444 -102.6661 282° West 365 420 35,900  Level Albuquerque Center
11:12PM 31.1656 -102.7853 282° West 371 427 35,900  Level Albuquerque Center
11:13PM 31.1867 -102.9050 282° West 374 430 35,900  Level Albuquerque Center
11:14PM 31.2083 -103.0219 282° West 371 427 35,900  Level Albuquerque Center
11:15PM 31.2289 -103.1400 282° West 371 427 35,900  Level Albuquerque Center
11:16PM 31.2481 -103.2583 281° West 372 428 35,900  Level Albuquerque Center
11:17PM 31.2697 -103.3761 282° West 371 427 35,900  Level Albuquerque Center
11:18PM 31.2897 -103.4936 281° West 369 425 35,900  Level Albuquerque Center
11:19PM 31.3094 -103.6103 281° West 368 423 35,900  Level Albuquerque Center
11:20PM 31.3344 -103.7506 282° West 367 422 35,900  Level Albuquerque Center
11:21PM 31.3531 -103.8564 282° West 366 421 35,900  Level Albuquerque Center
11:22PM 31.3719 -103.9717 281° West 364 419 35,900  Level Albuquerque Center
11:23PM 31.3917 -104.0878 281° West 364 419 35,900  Level Albuquerque Center
11:24PM 31.4125 -104.2042 282° West 365 420 35,900  Level Albuquerque Center
11:25PM 31.4308 -104.3200 281° West 365 420 35,900  Level Albuquerque Center
11:26PM 31.4533 -104.4589 281° West 364 419 35,900  Level Albuquerque Center
11:27PM 31.4664 -104.5750 278° West 363 418 35,900  Level Albuquerque Center
11:28PM 31.4775 -104.6917 276° West 363 418 35,900 -1,200 Level Albuquerque Center
11:29PM 31.4897 -104.8083 277° West 363 418 33,500 -2,700 Descending Albuquerque Center
11:30PM 31.5017 -104.9264 277° West 367 422 30,400 -2,760 Descending Albuquerque Center
11:31PM 31.5144 -105.0422 277° West 363 418 28,000 -2,340 Descending Albuquerque Center
11:32PM 31.5250 -105.1531 276° West 350 403 25,700 -2,460 Descending Albuquerque Center
11:33PM 31.5386 -105.2825 277° West 338 389 23,000 -2,460 Descending Albuquerque Center
11:35PM 31.5481 -105.3914 276° West 339 390 20,800 -2,280 Descending Albuquerque Center
11:35PM 31.5508 -105.4272 275° West 331 381 20,100 -2,400 Descending Albuquerque Center
11:36PM 31.5597 -105.5042 278° West 351 404 18,400 -2,220 Descending Albuquerque Center
11:37PM 31.5708 -105.6197 276° West 349 402 16,200 -2,280 Descending Albuquerque Center
11:37PM 31.5744 -105.6536 277° West 347 399 15,500 -2,280 Descending Albuquerque Center
11:38PM 31.5814 -105.7281 276° West 338 389 13,900 -2,280 Descending Albuquerque Center
11:38PM 31.5839 -105.7608 275° West 331 381 13,200 -2,100 Descending Albuquerque Center
11:39PM 31.5992 -105.8269 285° West 324 373 11,800 -1,740 Descending Albuquerque Center
11:40PM 31.6436 -105.9122 301° West 308 354 10,200 -1,320 Descending Albuquerque Center
11:41PM 31.6822 -105.9881 301° West 274 315 9,100 -1,320 Descending Albuquerque Center
11:42PM 31.7181 -106.0606 300° West 258 297 7,500 -840 Descending Albuquerque Center
11:43PM 31.7428 -106.1492 288° West 234 269 7,400 -540 Descending Albuquerque Center
11:44PM 31.7622 -106.2161 289° West 220 253 6,500 -960 Descending Albuquerque Center
11:45PM 31.7842 -106.2744 294° West 192 221 5,500 -960 Descending Albuquerque Center
11:46PM 31.7983 -106.3186 291° West 145 167 4,600 -780 Descending Albuquerque Center
11:47PM 31.8017 -106.3636 275° West 138 159 4,000 -600 Descending Albuquerque Center
11:49PM 31.8000 -106.3667 270° West  Level FlightAware Approximate
11:56PM 31.8072 -106.3764 270° West  Level Estimated
11:57PM 31.8072 -106.3764 270° West  Level Estimated
11:58PM 31.8072 -106.3764 270° West  Level Estimated
11:59PM 31.8072 -106.3764 270° West  Level Estimated